Time;durP1;ratioP1;P1;durP2;ratioP2;P2;SDS_P1;SDS_P2;PMS_P1;PMS_P2;Temp;Humidity;BMP_temperature;BMP_pressure;BME280_temperature;BME280_humidity;BME280_pressure;Samples;Min_cycle;Max_cycle;Signal;HPM_P1;HPM_P2
2022/05/08 00:01:44;;;;;;;9.75;8.63;;;15.00;92.80;;;;;;6176448;23;20370;-81
2022/05/08 00:04:11;;;;;;;9.68;8.57;;;15.00;92.70;;;;;;6175787;23;20692;-80
2022/05/08 00:06:37;;;;;;;9.82;8.82;;;15.00;92.80;;;;;;6175863;23;20381;-79
2022/05/08 00:09:04;;;;;;;9.32;8.27;;;15.10;92.60;;;;;;6176106;23;20366;-81
2022/05/08 00:11:31;;;;;;;9.27;8.25;;;15.00;92.30;;;;;;6176352;23;20846;-80
2022/05/08 00:13:58;;;;;;;9.13;8.18;;;15.00;92.30;;;;;;6176846;23;20386;-81
2022/05/08 00:16:25;;;;;;;9.55;8.65;;;15.00;92.30;;;;;;6175902;23;20374;-80
2022/05/08 00:18:53;;;;;;;9.93;8.93;;;15.00;92.50;;;;;;6176813;23;20378;-80
2022/05/08 00:21:20;;;;;;;9.98;7.65;;;15.00;92.50;;;;;;6176136;23;20382;-81
2022/05/08 00:23:47;;;;;;;8.73;7.93;;;15.00;92.60;;;;;;6175653;23;20747;-80
2022/05/08 00:26:14;;;;;;;10.65;9.55;;;14.90;92.60;;;;;;6152712;23;20381;-81
2022/05/08 00:28:41;;;;;;;11.85;10.05;;;15.00;92.60;;;;;;6175490;23;20410;-80
2022/05/08 00:31:09;;;;;;;12.90;10.73;;;15.00;92.50;;;;;;6176434;23;20428;-81
2022/05/08 00:33:37;;;;;;;16.65;13.43;;;15.00;92.50;;;;;;6175061;23;20386;-81
2022/05/08 00:36:05;;;;;;;16.02;12.50;;;14.90;92.60;;;;;;6151643;23;20445;-81
2022/05/08 00:38:32;;;;;;;12.48;10.48;;;14.90;92.80;;;;;;6175450;23;20386;-81
2022/05/08 00:40:59;;;;;;;10.23;9.23;;;14.90;92.90;;;;;;6153711;23;20370;-82
2022/05/08 00:43:32;;;;;;;10.90;9.48;;;14.80;93.50;;;;;;6174604;23;20382;-80
2022/05/08 00:46:04;;;;;;;8.52;7.65;;;14.70;93.80;;;;;;6175540;23;20373;-80
2022/05/08 00:48:32;;;;;;;10.48;9.32;;;14.70;93.60;;;;;;6175331;23;20839;-80
2022/05/08 00:51:04;;;;;;;9.10;8.13;;;14.80;93.50;;;;;;6176286;23;20743;-82
2022/05/08 00:53:52;;;;;;;7.10;6.40;;;14.70;93.60;;;;;;6174782;23;20394;-81
2022/05/08 00:56:20;;;;;;;5.75;5.25;;;14.80;93.50;;;;;;6175247;23;20858;-82
2022/05/08 00:58:50;;;;;;;5.93;5.10;;;14.80;93.30;;;;;;6176066;23;20418;-82
2022/05/08 01:01:17;;;;;;;4.90;4.50;;;14.80;93.10;;;;;;6175917;23;20446;-81
2022/05/08 01:03:45;;;;;;;5.68;4.80;;;14.80;92.90;;;;;;6174919;23;20445;-83
2022/05/08 01:06:14;;;;;;;5.63;5.07;;;14.80;92.90;;;;;;6175996;23;20398;-81
2022/05/08 01:08:43;;;;;;;6.70;5.93;;;14.80;92.80;;;;;;6174217;23;20378;-81
2022/05/08 01:11:11;;;;;;;10.02;9.02;;;14.80;93.00;;;;;;6176360;23;20421;-82
2022/05/08 01:13:39;;;;;;;10.25;8.70;;;14.60;93.60;;;;;;6175997;23;20440;-81
2022/05/08 01:16:15;;;;;;;10.43;9.32;;;14.60;93.70;;;;;;6176199;23;20404;-81
2022/05/08 01:18:43;;;;;;;11.27;9.13;;;14.60;93.80;;;;;;6175739;23;20378;-81
2022/05/08 01:21:16;;;;;;;9.20;8.15;;;14.50;93.80;;;;;;6152391;23;20375;-81
2022/05/08 01:23:44;;;;;;;9.02;8.13;;;14.60;93.70;;;;;;6174726;23;20377;-81
2022/05/08 01:26:12;;;;;;;10.02;8.27;;;14.60;93.50;;;;;;6152661;23;20405;-80
2022/05/08 01:28:38;;;;;;;7.70;6.93;;;14.60;93.40;;;;;;6174593;23;20839;-80
2022/05/08 01:31:05;;;;;;;8.55;7.65;;;14.70;93.30;;;;;;6176251;23;20381;-81
2022/05/08 01:33:32;;;;;;;8.57;7.45;;;14.60;93.20;;;;;;6163194;23;20390;-80
2022/05/08 01:36:01;;;;;;;7.82;7.05;;;14.70;93.20;;;;;;6175420;23;20377;-82
2022/05/08 01:38:28;;;;;;;8.50;7.60;;;14.60;93.10;;;;;;6175264;23;20432;-82
2022/05/08 01:40:55;;;;;;;8.60;7.15;;;14.60;93.00;;;;;;6175821;23;20380;-82
2022/05/08 01:43:23;;;;;;;8.18;7.38;;;14.60;93.10;;;;;;6176180;23;20850;-81
2022/05/08 01:45:54;;;;;;;8.63;7.50;;;14.60;93.10;;;;;;6174548;23;20377;-81
2022/05/08 01:48:25;;;;;;;7.35;6.65;;;14.60;93.00;;;;;;6175900;23;20397;-80
2022/05/08 01:50:55;;;;;;;8.25;7.35;;;14.60;93.00;;;;;;6151204;23;20382;-80
2022/05/08 01:53:24;;;;;;;7.60;6.82;;;14.60;93.00;;;;;;6175034;23;20429;-80
2022/05/08 01:55:55;;;;;;;8.75;7.13;;;14.60;93.00;;;;;;6151068;23;20703;-81
2022/05/08 01:58:27;;;;;;;7.50;6.53;;;14.60;93.10;;;;;;6175356;23;20425;-81
2022/05/08 02:00:56;;;;;;;7.75;6.95;;;14.60;93.10;;;;;;6174860;23;20519;-81
2022/05/08 02:03:24;;;;;;;7.82;6.80;;;14.60;93.10;;;;;;6151494;23;20409;-81
2022/05/08 02:05:52;;;;;;;7.47;6.77;;;14.60;93.10;;;;;;6175293;23;20818;-80
2022/05/08 02:08:19;;;;;;;7.97;7.18;;;14.50;93.10;;;;;;6175983;23;20429;-80
2022/05/08 02:10:46;;;;;;;9.43;8.30;;;14.50;93.10;;;;;;6175301;23;20696;-80
2022/05/08 02:13:13;;;;;;;10.48;9.38;;;14.40;93.60;;;;;;6175074;23;20370;-81
2022/05/08 02:15:40;;;;;;;8.90;8.10;;;14.30;93.80;;;;;;6175811;23;20382;-81
2022/05/08 02:18:09;;;;;;;9.20;8.23;;;14.30;93.70;;;;;;6174476;23;20381;-81
2022/05/08 02:20:39;;;;;;;9.18;7.80;;;14.40;93.60;;;;;;6176820;23;20847;-81
2022/05/08 02:23:07;;;;;;;7.68;6.88;;;14.40;93.60;;;;;;6177692;23;20365;-81
2022/05/08 02:25:35;;;;;;;10.85;7.70;;;14.40;93.50;;;;;;6176948;23;20385;-81
2022/05/08 02:28:02;;;;;;;9.32;6.75;;;14.40;93.90;;;;;;6177306;23;20421;-81
2022/05/08 02:30:29;;;;;;;7.88;7.03;;;14.50;93.50;;;;;;6178626;23;20901;-80
2022/05/08 02:32:57;;;;;;;8.00;7.30;;;14.50;93.40;;;;;;6176348;23;20366;-80
2022/05/08 02:35:24;;;;;;;8.90;7.85;;;14.50;93.20;;;;;;6177736;23;20390;-81
2022/05/08 02:37:53;;;;;;;11.32;9.30;;;14.50;93.20;;;;;;6176556;23;20378;-80
2022/05/08 02:40:22;;;;;;;10.40;9.25;;;14.30;93.80;;;;;;6176790;23;20445;-81
2022/05/08 02:42:50;;;;;;;9.03;8.07;;;14.30;94.00;;;;;;6176977;23;20874;-81
2022/05/08 02:45:18;;;;;;;12.27;9.98;;;14.30;93.90;;;;;;6177430;23;20370;-80
2022/05/08 02:47:45;;;;;;;11.93;8.87;;;14.30;94.20;;;;;;6176673;23;20429;-80
2022/05/08 02:50:12;;;;;;;12.33;8.53;;;14.20;94.20;;;;;;6176673;23;20440;-81
2022/05/08 02:52:40;;;;;;;9.50;7.80;;;14.20;94.10;;;;;;6177043;23;20699;-80
2022/05/08 03:00:42;;;;;;;12.98;8.57;;;14.30;94.00;;;;;;6153491;23;20382;-80
2022/05/08 03:03:10;;;;;;;11.25;8.55;;;14.30;94.00;;;;;;6176722;23;20490;-80
2022/05/08 03:05:37;;;;;;;11.95;8.77;;;14.40;94.00;;;;;;6176059;23;20398;-80
2022/05/08 03:08:05;;;;;;;15.27;9.07;;;14.40;93.90;;;;;;6177769;23;20830;-80
2022/05/08 03:11:25;;;;;;;13.85;9.85;;;14.40;93.80;;;;;;6177241;23;20378;-80
2022/05/08 03:13:19;;;;;;;9.68;8.68;;;14.40;93.80;;;;;;6154581;23;20370;-79
2022/05/08 03:15:47;;;;;;;11.20;8.80;;;14.40;93.70;;;;;;6176533;23;20378;-80
2022/05/08 03:18:14;;;;;;;9.50;8.15;;;14.40;93.70;;;;;;6175831;23;20460;-80
2022/05/08 03:20:41;;;;;;;9.25;8.30;;;14.40;93.70;;;;;;6177311;23;20370;-80
2022/05/08 03:23:08;;;;;;;10.18;7.95;;;14.40;93.70;;;;;;6176320;23;20381;-80
2022/05/08 03:25:36;;;;;;;11.68;8.02;;;14.40;93.60;;;;;;6177236;23;20374;-81
2022/05/08 03:28:03;;;;;;;8.88;7.75;;;14.40;93.50;;;;;;6152982;23;20401;-80
2022/05/08 03:30:30;;;;;;;9.57;8.57;;;14.40;93.50;;;;;;6177119;23;20676;-81
2022/05/08 03:32:58;;;;;;;10.68;9.40;;;14.30;93.70;;;;;;6175956;23;20405;-81
2022/05/08 03:35:25;;;;;;;10.70;9.23;;;14.30;93.70;;;;;;6177593;23;20382;-80
2022/05/08 03:37:52;;;;;;;10.00;8.57;;;14.30;93.70;;;;;;6177173;23;20385;-80
2022/05/08 03:40:19;;;;;;;20.45;8.50;;;14.30;93.80;;;;;;6176383;23;20370;-81
2022/05/08 03:42:46;;;;;;;8.88;7.70;;;14.30;93.80;;;;;;6177147;23;20382;-81
2022/05/08 03:45:13;;;;;;;8.18;7.38;;;14.30;93.70;;;;;;6175837;23;20433;-80
2022/05/08 03:47:40;;;;;;;9.75;8.55;;;14.40;93.60;;;;;;6177420;23;20382;-80
2022/05/08 03:50:08;;;;;;;9.20;8.20;;;14.40;93.60;;;;;;6175253;23;20374;-81
2022/05/08 03:52:35;;;;;;;8.77;7.88;;;14.30;93.70;;;;;;6177080;23;20390;-81
2022/05/08 03:55:02;;;;;;;10.63;8.63;;;14.30;93.60;;;;;;6176252;23;20382;-80
2022/05/08 03:57:29;;;;;;;9.20;8.40;;;14.30;93.60;;;;;;6177739;23;20704;-81
2022/05/08 03:59:58;;;;;;;8.25;7.45;;;14.30;93.60;;;;;;6175476;23;20373;-80
2022/05/08 04:02:26;;;;;;;7.88;7.07;;;14.30;93.60;;;;;;6151871;23;20871;-81
2022/05/08 04:05:00;;;;;;;8.50;7.60;;;14.30;93.50;;;;;;6174497;23;20374;-81
2022/05/08 04:07:27;;;;;;;7.00;6.25;;;14.30;93.40;;;;;;6176729;23;20374;-81
2022/05/08 04:09:54;;;;;;;8.10;7.05;;;14.40;93.40;;;;;;6176795;23;20382;-80
2022/05/08 04:12:21;;;;;;;9.70;8.15;;;14.40;93.20;;;;;;6175460;23;20381;-80
2022/05/08 04:14:48;;;;;;;11.05;9.27;;;14.40;93.20;;;;;;6176630;23;20428;-80
2022/05/08 04:17:16;;;;;;;11.60;8.90;;;14.40;93.30;;;;;;6175327;23;20382;-80
2022/05/08 04:19:43;;;;;;;12.77;9.50;;;14.40;93.30;;;;;;6175320;23;20400;-79
2022/05/08 04:24:57;;;;;;;9.83;8.83;;;14.40;93.50;;;;;;6152316;23;20472;-80
2022/05/08 04:27:24;;;;;;;11.23;9.07;;;14.30;93.60;;;;;;6175618;23;20381;-80
2022/05/08 04:29:51;;;;;;;11.40;9.18;;;14.30;93.70;;;;;;6176263;23;20381;-80
2022/05/08 04:32:18;;;;;;;11.15;9.18;;;14.30;93.90;;;;;;6174771;23;20382;-80
2022/05/08 04:34:45;;;;;;;12.38;9.73;;;14.20;94.00;;;;;;6176748;23;20389;-80
2022/05/08 04:37:11;;;;;;;12.68;9.93;;;14.20;93.80;;;;;;6175203;23;20382;-80
2022/05/08 04:39:38;;;;;;;13.07;10.52;;;14.20;93.90;;;;;;6176873;23;20374;-80
2022/05/08 04:42:06;;;;;;;13.60;10.63;;;14.20;93.90;;;;;;6175064;23;20378;-80
2022/05/08 04:44:32;;;;;;;14.18;11.60;;;14.30;93.90;;;;;;6176263;23;20374;-79
2022/05/08 04:46:59;;;;;;;13.57;11.43;;;14.30;93.90;;;;;;6176536;23;20390;-79
2022/05/08 04:49:27;;;;;;;18.02;11.88;;;14.30;93.90;;;;;;6175586;23;20377;-80
2022/05/08 04:51:54;;;;;;;13.35;10.73;;;14.30;94.10;;;;;;6176441;23;20460;-80
2022/05/08 04:54:23;;;;;;;12.90;10.65;;;14.30;94.00;;;;;;6174320;23;20378;-80
2022/05/08 04:56:51;;;;;;;14.73;11.50;;;14.40;94.00;;;;;;6176840;23;20865;-80
2022/05/08 04:59:18;;;;;;;14.00;10.30;;;14.40;93.90;;;;;;6174735;23;20378;-79
2022/05/08 05:01:45;;;;;;;17.80;12.35;;;14.40;93.80;;;;;;6176181;23;20708;-80
2022/05/08 05:04:12;;;;;;;15.73;12.13;;;14.40;93.90;;;;;;6174979;23;20378;-79
2022/05/08 05:06:41;;;;;;;13.90;10.75;;;14.40;94.10;;;;;;6176875;23;20383;-80
2022/05/08 05:09:08;;;;;;;12.55;9.90;;;14.40;94.00;;;;;;6174941;23;20834;-80
2022/05/08 05:11:35;;;;;;;13.70;11.05;;;14.40;93.90;;;;;;6175646;23;20429;-80
2022/05/08 05:14:01;;;;;;;11.15;9.48;;;14.40;93.90;;;;;;6175940;23;20448;-80
2022/05/08 05:16:28;;;;;;;11.68;9.43;;;14.50;93.80;;;;;;6175934;23;20898;-80
2022/05/08 05:18:55;;;;;;;11.35;9.85;;;14.50;93.80;;;;;;6175712;23;20855;-80
2022/05/08 05:21:22;;;;;;;9.95;8.95;;;14.50;93.80;;;;;;6175493;23;20437;-79
2022/05/08 05:23:49;;;;;;;11.05;9.30;;;14.50;93.70;;;;;;6176386;23;20374;-79
2022/05/08 05:26:16;;;;;;;8.70;7.80;;;14.60;93.90;;;;;;6175209;23;20440;-80
2022/05/08 05:28:44;;;;;;;9.38;8.23;;;14.50;93.40;;;;;;6176577;23;20429;-79
2022/05/08 05:31:12;;;;;;;8.45;7.55;;;14.50;93.40;;;;;;6175178;23;20376;-79
2022/05/08 05:33:39;;;;;;;8.63;7.72;;;14.50;93.40;;;;;;6175438;23;20386;-79
2022/05/08 05:36:06;;;;;;;8.15;7.35;;;14.60;93.40;;;;;;6175311;23;20374;-80
2022/05/08 05:38:33;;;;;;;8.25;7.45;;;14.50;93.40;;;;;;6174547;23;20378;-79
2022/05/08 05:41:00;;;;;;;8.10;7.18;;;14.60;93.40;;;;;;6175818;23;20374;-80
2022/05/08 05:43:27;;;;;;;7.70;7.00;;;14.60;93.50;;;;;;6174208;23;20358;-80
2022/05/08 05:48:39;;;;;;;6.47;5.65;;;14.50;93.50;;;;;;6150809;23;20835;-80
2022/05/08 05:51:06;;;;;;;6.72;6.07;;;14.50;93.40;;;;;;6176048;23;20370;-80
2022/05/08 05:53:34;;;;;;;6.47;5.88;;;14.50;93.40;;;;;;6173535;23;20374;-80
2022/05/08 05:56:02;;;;;;;6.15;5.45;;;14.50;93.60;;;;;;6175444;23;20436;-80
2022/05/08 05:58:29;;;;;;;6.40;5.55;;;14.40;93.70;;;;;;6174703;23;20385;-80
2022/05/08 06:00:56;;;;;;;5.45;4.95;;;14.40;93.70;;;;;;6176384;23;20905;-80
2022/05/08 06:03:23;;;;;;;5.68;4.95;;;14.50;93.50;;;;;;6175066;23;20706;-79
2022/05/08 06:05:50;;;;;;;6.78;6.07;;;14.50;93.40;;;;;;6175383;23;20382;-80
2022/05/08 06:08:17;;;;;;;6.85;6.15;;;14.50;93.60;;;;;;6175090;23;20374;-80
2022/05/08 06:10:44;;;;;;;6.15;5.57;;;14.50;93.60;;;;;;6175399;23;21515;-80
2022/05/08 06:13:12;;;;;;;6.13;5.30;;;14.60;93.60;;;;;;6176785;23;20439;-80
2022/05/08 06:15:39;;;;;;;7.10;5.53;;;14.50;93.60;;;;;;6174575;23;20382;-78
2022/05/08 06:18:06;;;;;;;5.40;4.90;;;14.60;93.60;;;;;;6174647;23;20401;-80
2022/05/08 06:20:33;;;;;;;4.93;4.53;;;14.60;93.70;;;;;;6175721;23;20374;-79
2022/05/08 06:23:00;;;;;;;5.35;4.95;;;14.60;93.40;;;;;;6174842;23;20869;-79
2022/05/08 06:25:27;;;;;;;5.80;5.20;;;14.60;93.50;;;;;;6175025;23;20428;-80
2022/05/08 06:27:54;;;;;;;5.22;4.80;;;14.60;93.70;;;;;;6175258;23;20417;-79
2022/05/08 06:30:21;;;;;;;5.93;5.22;;;14.60;93.70;;;;;;6175388;23;20841;-79
2022/05/08 06:32:48;;;;;;;6.38;5.78;;;14.70;93.90;;;;;;6176578;23;20365;-79
2022/05/08 06:35:36;;;;;;;7.85;6.28;;;14.70;94.00;;;;;;6170700;23;20486;-79
2022/05/08 06:38:03;;;;;;;6.13;5.53;;;14.80;93.60;;;;;;6175224;23;20366;-80
2022/05/08 06:40:30;;;;;;;6.57;5.32;;;14.80;93.40;;;;;;6174415;23;20374;-80
2022/05/08 06:42:57;;;;;;;5.43;4.93;;;14.80;93.30;;;;;;6174816;23;20370;-80
2022/05/08 06:45:27;;;;;;;5.20;4.50;;;14.80;93.20;;;;;;6174048;23;20925;-81
2022/05/08 06:47:54;;;;;;;4.75;4.35;;;14.90;93.20;;;;;;6175442;23;20378;-80
2022/05/08 06:50:21;;;;;;;4.55;4.13;;;14.90;92.90;;;;;;6174678;23;20381;-80
2022/05/08 06:52:48;;;;;;;4.47;4.07;;;15.00;92.30;;;;;;6175024;23;20858;-79
2022/05/08 06:55:15;;;;;;;4.32;3.80;;;15.00;92.20;;;;;;6175392;23;20762;-80
2022/05/08 06:57:42;;;;;;;4.35;3.95;;;15.00;92.10;;;;;;6174627;23;20374;-79
2022/05/08 07:02:56;;;;;;;3.97;3.50;;;15.00;92.40;;;;;;6151690;23;20393;-80
2022/05/08 07:05:23;;;;;;;3.95;3.10;;;15.10;92.40;;;;;;6176427;23;20465;-79
2022/05/08 07:07:50;;;;;;;3.60;3.30;;;15.10;92.90;;;;;;6153294;23;20846;-80
2022/05/08 07:10:17;;;;;;;4.30;3.63;;;15.10;92.40;;;;;;6177829;23;20385;-79
2022/05/08 07:12:44;;;;;;;3.95;3.15;;;15.10;92.30;;;;;;6175919;23;20378;-80
2022/05/08 07:15:11;;;;;;;3.55;3.25;;;15.10;92.30;;;;;;6177636;23;20386;-79
2022/05/08 07:17:38;;;;;;;3.80;3.25;;;15.10;92.20;;;;;;6176797;23;20378;-79
2022/05/08 07:20:05;;;;;;;5.07;4.60;;;15.10;92.10;;;;;;6177014;23;20378;-79
2022/05/08 07:22:34;;;;;;;6.13;5.38;;;15.10;92.20;;;;;;6175962;23;20378;-81
2022/05/08 07:25:01;;;;;;;8.37;6.33;;;15.10;92.40;;;;;;6177330;23;20444;-79
2022/05/08 07:27:29;;;;;;;14.07;9.80;;;15.10;92.80;;;;;;6176710;23;20386;-81
2022/05/08 07:30:01;;;;;;;10.32;8.07;;;15.00;92.90;;;;;;6175527;23;20429;-79
2022/05/08 07:32:29;;;;;;;11.60;6.25;;;15.00;93.00;;;;;;6176399;23;20710;-79
2022/05/08 07:37:52;;;;;;;4.85;4.35;;;14.90;93.20;;;;;;6146171;23;20377;-79
2022/05/08 07:40:19;;;;;;;5.10;4.60;;;14.90;93.10;;;;;;6177585;23;20449;-79
2022/05/08 07:42:46;;;;;;;4.68;3.45;;;15.00;92.90;;;;;;6175696;23;20374;-79
2022/05/08 07:45:13;;;;;;;5.25;3.50;;;15.10;92.50;;;;;;6176825;23;20688;-80
2022/05/08 07:47:40;;;;;;;4.78;3.92;;;15.20;92.40;;;;;;6152585;23;20440;-80
2022/05/08 07:50:07;;;;;;;5.07;4.30;;;15.30;92.20;;;;;;6176704;23;20370;-80
2022/05/08 07:52:39;;;;;;;5.40;4.40;;;15.30;92.60;;;;;;6175738;23;20421;-81
2022/05/08 07:55:07;;;;;;;6.90;4.15;;;15.40;92.50;;;;;;6175623;23;20370;-79
2022/05/08 07:57:35;;;;;;;4.33;3.83;;;15.50;92.50;;;;;;6176207;23;20542;-80
2022/05/08 08:00:04;;;;;;;4.13;3.78;;;15.60;92.40;;;;;;6176179;23;20371;-79
2022/05/08 08:02:31;;;;;;;3.85;3.55;;;15.70;92.10;;;;;;6175525;23;20377;-80
2022/05/08 08:04:58;;;;;;;3.90;3.50;;;15.80;91.60;;;;;;6153231;23;20370;-80
2022/05/08 08:07:25;;;;;;;4.78;3.60;;;15.80;91.40;;;;;;6175832;23;20731;-79
2022/05/08 08:09:53;;;;;;;4.25;3.85;;;15.90;91.30;;;;;;6176207;23;20366;-79
2022/05/08 08:12:21;;;;;;;4.47;3.83;;;16.00;91.10;;;;;;6176300;23;20370;-80
2022/05/08 08:14:48;;;;;;;4.25;3.85;;;15.90;91.00;;;;;;6152014;23;20374;-79
2022/05/08 08:17:15;;;;;;;4.35;3.75;;;16.00;90.70;;;;;;6175980;23;20382;-80
2022/05/08 08:19:47;;;;;;;4.18;3.60;;;16.00;90.50;;;;;;6174822;23;20371;-80
2022/05/08 08:22:14;;;;;;;5.25;3.92;;;16.10;90.70;;;;;;6176287;23;20746;-80
2022/05/08 08:24:41;;;;;;;4.17;3.77;;;16.10;90.60;;;;;;6175770;23;20374;-81
2022/05/08 08:27:08;;;;;;;2.47;2.28;;;16.10;90.70;;;;;;6174933;23;20385;-83
2022/05/08 08:29:35;;;;;;;4.05;2.95;;;16.10;90.10;;;;;;6175601;23;20378;-81
2022/05/08 08:32:02;;;;;;;3.13;2.80;;;16.00;89.70;;;;;;6174408;23;20378;-80
2022/05/08 08:34:29;;;;;;;3.22;2.60;;;16.00;90.00;;;;;;6151516;23;20458;-80
2022/05/08 08:36:56;;;;;;;2.53;2.00;;;16.00;89.90;;;;;;6151354;23;20452;-82
2022/05/08 08:39:23;;;;;;;3.35;2.33;;;16.10;90.00;;;;;;6152743;23;20434;-80
2022/05/08 08:42:02;;;;;;;3.67;2.13;;;16.20;89.60;;;;;;6175434;23;20440;-81
2022/05/08 08:50:08;;;;;;;1.67;1.52;;;16.40;89.10;;;;;;6151516;23;20029;-81
2022/05/08 08:52:35;;;;;;;;;;;16.30;88.60;;;;;;6154339;23;20025;-80
2022/05/08 08:55:04;;;;;;;1.75;1.48;;;16.40;89.00;;;;;;6152078;23;19917;-81
2022/05/08 08:57:31;;;;;;;2.60;2.38;;;16.50;88.40;;;;;;6152415;23;20044;-81
2022/05/08 08:59:57;;;;;;;2.80;1.60;;;16.50;89.10;;;;;;6175034;23;20029;-81
2022/05/08 09:02:25;;;;;;;2.22;1.98;;;16.50;89.20;;;;;;6177711;23;20088;-81
2022/05/08 09:04:54;;;;;;;2.60;1.65;;;16.70;88.30;;;;;;6176782;23;20036;-81
2022/05/08 09:07:44;;;;;;;3.35;1.63;;;16.80;87.50;;;;;;6177930;23;20621;-81
2022/05/08 09:10:22;;;;;;;1.98;1.50;;;16.80;86.20;;;;;;6176912;23;20088;-80
2022/05/08 09:12:51;;;;;;;3.85;1.33;;;16.80;86.00;;;;;;6176790;23;20029;-80
2022/05/08 09:15:31;;;;;;;1.42;1.33;;;16.90;85.20;;;;;;6151879;23;20525;-80
2022/05/08 09:17:58;;;;;;;;;;;17.10;86.00;;;;;;6176468;23;20097;-81
2022/05/08 09:20:26;;;;;;;;;;;17.20;83.10;;;;;;6152666;23;19920;-80
2022/05/08 09:22:59;;;;;;;;;;;17.20;82.20;;;;;;6152786;23;19967;-80
2022/05/08 09:25:44;;;;;;;;;;;17.20;82.40;;;;;;6152642;23;19927;-79
2022/05/08 09:28:32;;;;;;;;;;;17.50;83.10;;;;;;6151771;23;19916;-80
2022/05/08 09:31:03;;;;;;;;;;;17.60;81.60;;;;;;6152545;23;20396;-80
2022/05/08 09:33:34;;;;;;;;;;;17.80;82.80;;;;;;6151638;23;19920;-80
2022/05/08 09:36:04;;;;;;;;;;;18.10;81.20;;;;;;6153231;23;19971;-80
2022/05/08 09:38:41;;;;;;;;;;;18.10;77.10;;;;;;6153601;23;19923;-80
2022/05/08 09:41:08;;;;;;;;;;;18.30;76.50;;;;;;6152656;23;19917;-81
2022/05/08 09:43:36;;;;;;;;;;;18.30;76.60;;;;;;6152482;23;20756;-81
2022/05/08 09:46:04;;;;;;;;;;;18.60;77.00;;;;;;6152258;23;19923;-80
2022/05/08 09:48:33;;;;;;;;;;;18.90;76.60;;;;;;6152133;23;20245;-81
2022/05/08 09:51:01;;;;;;;;;;;19.00;72.60;;;;;;6153247;23;19920;-80
2022/05/08 09:53:28;;;;;;;;;;;19.20;72.50;;;;;;6151899;23;19947;-80
2022/05/08 09:55:56;;;;;;;;;;;19.40;72.40;;;;;;6153236;23;20322;-80
2022/05/08 09:58:23;;;;;;;;;;;19.70;71.30;;;;;;6152588;23;19916;-80
2022/05/08 10:00:51;;;;;;;;;;;20.00;72.90;;;;;;6152121;23;19927;-80
2022/05/08 10:03:19;;;;;;;;;;;20.00;68.20;;;;;;6152115;23;20404;-80
2022/05/08 10:05:46;;;;;;;;;;;19.90;66.60;;;;;;6152935;23;19916;-80
2022/05/08 10:08:13;;;;;;;;;;;19.90;67.20;;;;;;6151155;23;20324;-80
2022/05/08 10:16:40;;;;;;;;;;;20.30;66.10;;;;;;6154745;23;19925;-80
2022/05/08 10:19:16;;;;;;;;;;;20.10;68.40;;;;;;6153160;23;19917;-80
2022/05/08 10:21:52;;;;;;;;;;;20.10;65.40;;;;;;6152450;23;19916;-79
2022/05/08 10:24:30;;;;;;;;;;;19.60;62.90;;;;;;6151764;23;20330;-81
2022/05/08 10:27:16;;;;;;;;;;;19.60;64.50;;;;;;6152561;23;19963;-79
2022/05/08 10:29:49;;;;;;;;;;;19.60;63.00;;;;;;6151885;23;19920;-79
2022/05/08 10:32:36;;;;;;;;;;;19.70;62.40;;;;;;6153426;23;19924;-79
2022/05/08 10:35:11;;;;;;;;;;;19.80;61.50;;;;;;6161199;23;20334;-78
2022/05/08 10:37:38;;;;;;;;;;;20.00;61.80;;;;;;6151625;23;19916;-80
2022/05/08 10:40:24;;;;;;;;;;;20.20;62.00;;;;;;6178417;23;19979;-77
2022/05/08 10:42:56;;;;;;;;;;;20.30;63.40;;;;;;6153491;23;19924;-79
2022/05/08 10:45:32;;;;;;;;;;;20.60;62.50;;;;;;6154719;23;20289;-79
2022/05/08 10:48:08;;;;;;;;;;;20.90;62.70;;;;;;6155791;23;19947;-79
2022/05/08 10:50:35;;;;;;;;;;;21.00;61.40;;;;;;6155019;23;19920;-79
2022/05/08 10:53:02;;;;;;;;;;;21.10;60.60;;;;;;6152255;23;19922;-79
2022/05/08 10:55:29;;;;;;;;;;;21.20;60.00;;;;;;6153133;23;19920;-79
2022/05/08 10:57:56;;;;;;;;;;;21.60;60.00;;;;;;6152913;23;19917;-80
2022/05/08 11:00:24;;;;;;;;;;;21.70;60.30;;;;;;6154605;23;19923;-79
2022/05/08 11:02:51;;;;;;;;;;;20.80;58.70;;;;;;6152975;23;19916;-79
2022/05/08 11:05:22;;;;;;;;;;;20.80;63.70;;;;;;6153785;23;19951;-81
2022/05/08 11:07:50;;;;;;;;;;;21.30;62.80;;;;;;6153341;23;19927;-79
2022/05/08 11:10:21;;;;;;;;;;;21.60;59.50;;;;;;6154690;23;19920;-80
2022/05/08 11:13:09;;;;;;;;;;;21.40;58.90;;;;;;6153253;23;19916;-78
2022/05/08 11:15:43;;;;;;;;;;;21.00;59.50;;;;;;6153977;23;19971;-79
2022/05/08 11:18:12;;;;;;;;;;;21.40;58.40;;;;;;6154651;23;19982;-80
2022/05/08 11:20:48;;;;;;;;;;;21.70;59.60;;;;;;6154240;23;19927;-80
2022/05/08 11:23:16;;;;;;;;;;;21.40;60.50;;;;;;6155015;23;19924;-80
2022/05/08 11:25:46;;;;;;;;;;;21.70;57.40;;;;;;6154266;23;19924;-79
2022/05/08 11:28:17;;;;;;;;;;;21.70;57.40;;;;;;6178833;23;19923;-80
2022/05/08 11:30:46;;;;;;;;;;;21.70;57.10;;;;;;6154238;23;19951;-79
2022/05/08 11:36:04;;;;;;;;;;;21.60;57.40;;;;;;6154191;23;20257;-80
2022/05/08 11:38:41;;;;;;;;;;;21.10;57.90;;;;;;6154168;23;19917;-80
2022/05/08 11:41:09;;;;;;;;;;;21.20;61.70;;;;;;6153575;23;19992;-79
2022/05/08 11:43:46;;;;;;;;;;;20.90;58.70;;;;;;6154269;23;19916;-79
2022/05/08 11:46:17;;;;;;;;;;;21.00;60.90;;;;;;6153044;23;19920;-81
2022/05/08 11:48:50;;;;;;;;;;;21.60;61.00;;;;;;6154386;23;20334;-81
2022/05/08 11:51:21;;;;;;;;;;;21.90;56.20;;;;;;6153146;23;19995;-80
2022/05/08 11:53:49;;;;;;;;;;;21.90;56.50;;;;;;6153872;23;19922;-80
2022/05/08 11:56:27;;;;;;;;;;;21.80;57.50;;;;;;6153194;23;19995;-79
2022/05/08 11:58:55;;;;;;;;;;;21.70;57.40;;;;;;6152932;23;19979;-80
2022/05/08 12:01:23;;;;;;;;;;;21.60;57.70;;;;;;6153755;23;19920;-80
2022/05/08 12:03:50;;;;;;;;;;;21.00;58.20;;;;;;6154152;23;19987;-79
2022/05/08 12:06:17;;;;;;;;;;;20.50;58.70;;;;;;6150269;23;19924;-79
2022/05/08 12:08:47;;;;;;;;;;;20.10;60.90;;;;;;6178174;23;19917;-78
2022/05/08 12:11:37;;;;;;;;;;;20.00;61.60;;;;;;6152328;23;19928;-79
2022/05/08 12:14:05;;;;;;;;;;;20.10;63.60;;;;;;6152906;23;20253;-79
2022/05/08 12:16:32;;;;;;;;;;;20.20;62.10;;;;;;6152738;23;20350;-79
2022/05/08 12:19:10;;;;;;;;;;;20.30;61.80;;;;;;6153204;23;20339;-80
2022/05/08 12:21:40;;;;;;;;;;;20.20;61.00;;;;;;6153868;23;19924;-79
2022/05/08 12:24:08;;;;;;;;;;;20.00;62.00;;;;;;6152285;23;19992;-78
2022/05/08 12:26:34;;;;;;;;;;;20.00;62.20;;;;;;6153636;23;19995;-79
2022/05/08 12:29:01;;;;;;;;;;;20.10;64.80;;;;;;6154292;23;20294;-79
2022/05/08 12:31:28;;;;;;;;;;;20.20;64.90;;;;;;6154566;23;20330;-81
2022/05/08 12:33:55;;;;;;;;;;;20.10;60.70;;;;;;6152239;23;19920;-80
2022/05/08 12:36:22;;;;;;;;;;;20.00;64.20;;;;;;6153472;23;19920;-81
2022/05/08 12:38:49;;;;;;;;;;;20.00;63.20;;;;;;6153912;23;19916;-79
2022/05/08 12:41:15;;;;;;;;;;;20.10;64.50;;;;;;6152372;23;19975;-81
2022/05/08 12:43:42;;;;;;;;;;;20.30;64.30;;;;;;6154213;23;19916;-80
2022/05/08 12:46:09;;;;;;;;;;;20.60;63.60;;;;;;6152936;23;19995;-79
2022/05/08 12:48:36;;;;;;;;;;;20.50;61.10;;;;;;6153649;23;19967;-80
2022/05/08 12:51:04;;;;;;;;;;;20.50;60.70;;;;;;6151689;23;19971;-80
2022/05/08 12:53:30;;;;;;;;;;;20.60;60.40;;;;;;6154175;23;19967;-80
2022/05/08 12:55:57;;;;;;;;;;;20.60;63.50;;;;;;6153063;23;19971;-80
2022/05/08 13:01:09;;;;;;;;;;;20.30;66.90;;;;;;6154249;23;19971;-80
2022/05/08 13:03:36;;;;;;;;;;;19.90;66.00;;;;;;6155373;23;19916;-80
2022/05/08 13:06:07;;;;;;;;;;;19.60;67.20;;;;;;6176313;23;19917;-79
2022/05/08 13:08:34;;;;;;;;;;;19.10;70.60;;;;;;6154330;23;19920;-80
2022/05/08 13:11:02;;;;;;;;;;;18.70;72.90;;;;;;6152772;23;20400;-82
2022/05/08 13:13:35;;;;;;;;;;;18.30;72.80;;;;;;6153454;23;19920;-80
2022/05/08 13:16:01;;;;;;;;;;;18.10;74.10;;;;;;6153223;23;20334;-82
2022/05/08 13:18:29;;;;;;;;;;;17.80;75.10;;;;;;6155750;23;19939;-82
2022/05/08 13:20:55;;;;;;;;;;;17.50;77.90;;;;;;6155274;23;19925;-82
2022/05/08 13:23:22;;;;;;;;;;;17.20;77.40;;;;;;6151992;23;20254;-83
2022/05/08 13:25:49;;;;;;;;;;;17.00;79.30;;;;;;6178100;23;20309;-81
2022/05/08 13:28:16;;;;;;;;;;;16.90;81.00;;;;;;6151802;23;19920;-80
2022/05/08 13:30:43;;;;;;;;;;;16.70;82.10;;;;;;6153975;23;20334;-81
2022/05/08 13:33:10;;;;;;;;;;;16.60;83.90;;;;;;6154177;23;19920;-80
2022/05/08 13:35:37;;;;;;;;;;;16.50;84.20;;;;;;6156043;23;19963;-80
2022/05/08 13:38:04;;;;;;;;;;;16.50;85.00;;;;;;6151860;23;19916;-80
2022/05/08 13:40:30;;;;;;;;;;;16.50;84.00;;;;;;6153694;23;19971;-80
2022/05/08 13:42:57;;;;;;;;;;;16.50;83.40;;;;;;6154250;23;19917;-82
2022/05/08 13:45:24;;;;;;;;;;;16.40;82.80;;;;;;6152665;23;20373;-81
2022/05/08 13:47:51;;;;;;;;;;;16.40;83.60;;;;;;6154626;23;19916;-82
2022/05/08 13:50:18;;;;;;;;;;;16.30;84.90;;;;;;6153966;23;19963;-82
2022/05/08 13:52:46;;;;;;;;;;;16.10;87.20;;;;;;6154814;23;20002;-82
2022/05/08 13:55:17;;;;;;;;;;;16.10;89.70;;;;;;6154889;23;19920;-82